sensor_id;sensor_type;location;lat;lon;timestamp;temperature;humidity
11573;DHT22;5842;52.426;4.886;2022-09-01T00:01:26;15.10;99.90
11573;DHT22;5842;52.426;4.886;2022-09-01T00:03:56;15.10;99.90
11573;DHT22;5842;52.426;4.886;2022-09-01T00:06:30;15.00;99.90
11573;DHT22;5842;52.426;4.886;2022-09-01T00:09:03;15.00;99.90
11573;DHT22;5842;52.426;4.886;2022-09-01T00:11:31;14.90;99.90
11573;DHT22;5842;52.426;4.886;2022-09-01T00:13:59;14.90;99.90
11573;DHT22;5842;52.426;4.886;2022-09-01T00:16:27;14.80;99.90
11573;DHT22;5842;52.426;4.886;2022-09-01T00:18:57;14.80;99.90
11573;DHT22;5842;52.426;4.886;2022-09-01T00:21:27;14.80;99.90
11573;DHT22;5842;52.426;4.886;2022-09-01T00:28:49;14.80;99.90
11573;DHT22;5842;52.426;4.886;2022-09-01T00:31:18;14.80;99.90
11573;DHT22;5842;52.426;4.886;2022-09-01T00:33:46;14.70;99.90
11573;DHT22;5842;52.426;4.886;2022-09-01T00:36:17;14.60;99.90
11573;DHT22;5842;52.426;4.886;2022-09-01T00:38:44;14.50;99.90
11573;DHT22;5842;52.426;4.886;2022-09-01T00:41:12;14.40;99.90
11573;DHT22;5842;52.426;4.886;2022-09-01T00:43:44;14.40;99.90
11573;DHT22;5842;52.426;4.886;2022-09-01T00:46:13;14.40;99.90
11573;DHT22;5842;52.426;4.886;2022-09-01T00:48:40;14.30;99.90
11573;DHT22;5842;52.426;4.886;2022-09-01T00:51:10;14.30;99.90
11573;DHT22;5842;52.426;4.886;2022-09-01T00:53:41;14.30;99.90
11573;DHT22;5842;52.426;4.886;2022-09-01T00:56:11;14.30;99.90
11573;DHT22;5842;52.426;4.886;2022-09-01T00:58:39;14.30;99.90
11573;DHT22;5842;52.426;4.886;2022-09-01T01:01:09;14.20;99.90
11573;DHT22;5842;52.426;4.886;2022-09-01T01:03:37;14.20;99.90
11573;DHT22;5842;52.426;4.886;2022-09-01T01:06:08;14.10;99.90
11573;DHT22;5842;52.426;4.886;2022-09-01T01:08:41;14.10;99.90
11573;DHT22;5842;52.426;4.886;2022-09-01T01:11:15;14.10;99.90
11573;DHT22;5842;52.426;4.886;2022-09-01T01:13:47;14.00;99.90
11573;DHT22;5842;52.426;4.886;2022-09-01T01:16:17;14.00;99.90
11573;DHT22;5842;52.426;4.886;2022-09-01T01:18:44;14.00;99.90
11573;DHT22;5842;52.426;4.886;2022-09-01T01:21:17;13.90;99.90
11573;DHT22;5842;52.426;4.886;2022-09-01T01:24:08;13.90;99.90
11573;DHT22;5842;52.426;4.886;2022-09-01T01:26:37;13.80;99.90
11573;DHT22;5842;52.426;4.886;2022-09-01T01:29:04;13.80;99.90
11573;DHT22;5842;52.426;4.886;2022-09-01T01:31:34;13.80;99.90
11573;DHT22;5842;52.426;4.886;2022-09-01T01:34:03;13.70;99.90
11573;DHT22;5842;52.426;4.886;2022-09-01T01:36:34;13.60;99.90
11573;DHT22;5842;52.426;4.886;2022-09-01T01:39:04;13.70;99.90
11573;DHT22;5842;52.426;4.886;2022-09-01T01:41:33;13.60;99.90
11573;DHT22;5842;52.426;4.886;2022-09-01T01:44:03;13.60;99.90
11573;DHT22;5842;52.426;4.886;2022-09-01T01:46:31;13.60;99.90
11573;DHT22;5842;52.426;4.886;2022-09-01T01:48:59;13.60;99.90
11573;DHT22;5842;52.426;4.886;2022-09-01T01:51:28;13.50;99.90
11573;DHT22;5842;52.426;4.886;2022-09-01T01:53:56;13.40;99.90
11573;DHT22;5842;52.426;4.886;2022-09-01T01:56:26;13.40;99.90
11573;DHT22;5842;52.426;4.886;2022-09-01T01:58:55;13.40;99.90
11573;DHT22;5842;52.426;4.886;2022-09-01T02:01:27;13.30;99.90
11573;DHT22;5842;52.426;4.886;2022-09-01T02:03:57;13.20;99.90
11573;DHT22;5842;52.426;4.886;2022-09-01T02:06:26;13.20;99.90
11573;DHT22;5842;52.426;4.886;2022-09-01T02:08:55;13.20;99.90
11573;DHT22;5842;52.426;4.886;2022-09-01T02:11:22;13.10;99.90
11573;DHT22;5842;52.426;4.886;2022-09-01T02:13:50;13.10;99.90
11573;DHT22;5842;52.426;4.886;2022-09-01T02:16:21;13.10;99.90
11573;DHT22;5842;52.426;4.886;2022-09-01T02:18:50;13.00;99.90
11573;DHT22;5842;52.426;4.886;2022-09-01T02:21:20;13.00;99.90
11573;DHT22;5842;52.426;4.886;2022-09-01T02:23:50;12.90;99.90
11573;DHT22;5842;52.426;4.886;2022-09-01T02:26:26;12.90;99.90
11573;DHT22;5842;52.426;4.886;2022-09-01T02:28:56;12.90;99.90
11573;DHT22;5842;52.426;4.886;2022-09-01T02:33:55;12.80;99.90
11573;DHT22;5842;52.426;4.886;2022-09-01T02:38:51;12.70;99.90
11573;DHT22;5842;52.426;4.886;2022-09-01T02:41:19;12.70;99.90
11573;DHT22;5842;52.426;4.886;2022-09-01T02:43:49;12.70;99.90
11573;DHT22;5842;52.426;4.886;2022-09-01T02:46:16;12.70;99.90
11573;DHT22;5842;52.426;4.886;2022-09-01T02:48:48;12.60;99.90
11573;DHT22;5842;52.426;4.886;2022-09-01T02:51:19;12.60;99.90
11573;DHT22;5842;52.426;4.886;2022-09-01T02:53:50;12.60;99.90
11573;DHT22;5842;52.426;4.886;2022-09-01T02:56:19;12.50;99.90
11573;DHT22;5842;52.426;4.886;2022-09-01T02:58:49;12.50;99.90
11573;DHT22;5842;52.426;4.886;2022-09-01T03:01:19;12.50;99.90
11573;DHT22;5842;52.426;4.886;2022-09-01T03:06:19;12.40;99.90
11573;DHT22;5842;52.426;4.886;2022-09-01T03:08:49;12.40;99.90
11573;DHT22;5842;52.426;4.886;2022-09-01T03:11:16;12.40;99.90
11573;DHT22;5842;52.426;4.886;2022-09-01T03:13:43;12.40;99.90
11573;DHT22;5842;52.426;4.886;2022-09-01T03:16:11;12.40;99.90
11573;DHT22;5842;52.426;4.886;2022-09-01T03:18:39;12.30;99.90
11573;DHT22;5842;52.426;4.886;2022-09-01T03:21:08;12.30;99.90
11573;DHT22;5842;52.426;4.886;2022-09-01T03:23:42;12.30;99.90
11573;DHT22;5842;52.426;4.886;2022-09-01T03:26:09;12.20;99.90
11573;DHT22;5842;52.426;4.886;2022-09-01T03:28:36;12.20;99.90
11573;DHT22;5842;52.426;4.886;2022-09-01T03:31:03;12.20;99.90
11573;DHT22;5842;52.426;4.886;2022-09-01T03:33:31;12.20;99.90
11573;DHT22;5842;52.426;4.886;2022-09-01T03:35:59;12.10;99.90
11573;DHT22;5842;52.426;4.886;2022-09-01T03:38:26;12.10;99.90
11573;DHT22;5842;52.426;4.886;2022-09-01T03:40:59;12.10;99.90
11573;DHT22;5842;52.426;4.886;2022-09-01T03:43:27;12.00;99.90
11573;DHT22;5842;52.426;4.886;2022-09-01T03:45:55;12.00;99.90
11573;DHT22;5842;52.426;4.886;2022-09-01T03:48:26;12.00;99.90
11573;DHT22;5842;52.426;4.886;2022-09-01T03:50:54;12.00;99.90
11573;DHT22;5842;52.426;4.886;2022-09-01T03:53:22;12.00;99.90
11573;DHT22;5842;52.426;4.886;2022-09-01T03:55:52;12.00;99.90
11573;DHT22;5842;52.426;4.886;2022-09-01T03:58:26;12.00;99.90
11573;DHT22;5842;52.426;4.886;2022-09-01T04:00:55;12.00;99.90
11573;DHT22;5842;52.426;4.886;2022-09-01T04:03:25;12.10;99.90
11573;DHT22;5842;52.426;4.886;2022-09-01T04:05:53;12.10;99.90
11573;DHT22;5842;52.426;4.886;2022-09-01T04:08:22;12.10;99.90
11573;DHT22;5842;52.426;4.886;2022-09-01T04:10:56;12.20;99.90
11573;DHT22;5842;52.426;4.886;2022-09-01T04:13:28;12.10;99.90
11573;DHT22;5842;52.426;4.886;2022-09-01T04:15:56;12.10;99.90
11573;DHT22;5842;52.426;4.886;2022-09-01T04:18:24;12.10;99.90
11573;DHT22;5842;52.426;4.886;2022-09-01T04:20:52;12.00;99.90
11573;DHT22;5842;52.426;4.886;2022-09-01T04:23:23;12.00;99.90
11573;DHT22;5842;52.426;4.886;2022-09-01T04:25:56;11.90;99.90
11573;DHT22;5842;52.426;4.886;2022-09-01T04:28:30;11.90;99.90
11573;DHT22;5842;52.426;4.886;2022-09-01T04:31:02;11.90;99.90
11573;DHT22;5842;52.426;4.886;2022-09-01T04:33:32;11.80;99.90
11573;DHT22;5842;52.426;4.886;2022-09-01T04:36:05;11.80;99.90
11573;DHT22;5842;52.426;4.886;2022-09-01T04:38:35;11.80;99.90
11573;DHT22;5842;52.426;4.886;2022-09-01T04:41:03;11.80;99.90
11573;DHT22;5842;52.426;4.886;2022-09-01T04:43:34;11.80;99.90
11573;DHT22;5842;52.426;4.886;2022-09-01T04:46:01;11.70;99.90
11573;DHT22;5842;52.426;4.886;2022-09-01T04:48:29;11.70;99.90
11573;DHT22;5842;52.426;4.886;2022-09-01T04:50:56;11.70;99.90
11573;DHT22;5842;52.426;4.886;2022-09-01T04:53:23;11.70;99.90
11573;DHT22;5842;52.426;4.886;2022-09-01T04:55:51;11.70;99.90
11573;DHT22;5842;52.426;4.886;2022-09-01T04:58:19;11.70;99.90
11573;DHT22;5842;52.426;4.886;2022-09-01T05:00:48;11.70;99.90
11573;DHT22;5842;52.426;4.886;2022-09-01T05:03:18;11.70;99.90
11573;DHT22;5842;52.426;4.886;2022-09-01T05:05:48;11.70;99.90
11573;DHT22;5842;52.426;4.886;2022-09-01T05:08:20;11.70;99.90
11573;DHT22;5842;52.426;4.886;2022-09-01T05:10:50;11.80;99.90
11573;DHT22;5842;52.426;4.886;2022-09-01T05:13:20;11.90;99.90
11573;DHT22;5842;52.426;4.886;2022-09-01T05:16:00;12.00;99.90
11573;DHT22;5842;52.426;4.886;2022-09-01T05:18:28;12.20;99.90
11573;DHT22;5842;52.426;4.886;2022-09-01T05:20:55;12.30;99.90
11573;DHT22;5842;52.426;4.886;2022-09-01T05:23:23;12.40;99.90
11573;DHT22;5842;52.426;4.886;2022-09-01T05:25:51;12.50;99.90
11573;DHT22;5842;52.426;4.886;2022-09-01T05:28:20;12.60;99.90
11573;DHT22;5842;52.426;4.886;2022-09-01T05:30:51;12.70;99.90
11573;DHT22;5842;52.426;4.886;2022-09-01T05:33:20;12.80;99.90
11573;DHT22;5842;52.426;4.886;2022-09-01T05:35:52;12.90;99.90
11573;DHT22;5842;52.426;4.886;2022-09-01T05:38:21;13.00;99.90
11573;DHT22;5842;52.426;4.886;2022-09-01T05:40:55;13.10;99.90
11573;DHT22;5842;52.426;4.886;2022-09-01T05:43:22;13.10;99.90
11573;DHT22;5842;52.426;4.886;2022-09-01T05:45:53;13.20;99.90
11573;DHT22;5842;52.426;4.886;2022-09-01T05:48:21;13.20;99.90
11573;DHT22;5842;52.426;4.886;2022-09-01T05:50:52;13.30;99.90
11573;DHT22;5842;52.426;4.886;2022-09-01T05:53:25;13.40;99.90
11573;DHT22;5842;52.426;4.886;2022-09-01T05:55:55;13.50;99.90
11573;DHT22;5842;52.426;4.886;2022-09-01T05:58:24;13.60;99.90
11573;DHT22;5842;52.426;4.886;2022-09-01T06:00:54;13.70;99.90
11573;DHT22;5842;52.426;4.886;2022-09-01T06:03:24;13.80;99.90
11573;DHT22;5842;52.426;4.886;2022-09-01T06:05:52;13.90;99.90
11573;DHT22;5842;52.426;4.886;2022-09-01T06:08:21;14.00;99.90
11573;DHT22;5842;52.426;4.886;2022-09-01T06:10:50;14.10;99.90
11573;DHT22;5842;52.426;4.886;2022-09-01T06:13:18;14.20;99.90
11573;DHT22;5842;52.426;4.886;2022-09-01T06:15:46;14.30;99.90
11573;DHT22;5842;52.426;4.886;2022-09-01T06:18:15;14.30;99.90
11573;DHT22;5842;52.426;4.886;2022-09-01T06:20:45;14.40;99.90
11573;DHT22;5842;52.426;4.886;2022-09-01T06:23:14;14.50;99.90
11573;DHT22;5842;52.426;4.886;2022-09-01T06:25:43;14.60;99.90
11573;DHT22;5842;52.426;4.886;2022-09-01T06:28:11;14.60;99.90
11573;DHT22;5842;52.426;4.886;2022-09-01T06:30:41;14.70;99.90
11573;DHT22;5842;52.426;4.886;2022-09-01T06:33:09;14.80;99.90
11573;DHT22;5842;52.426;4.886;2022-09-01T06:35:41;14.90;99.90
11573;DHT22;5842;52.426;4.886;2022-09-01T06:38:10;14.90;99.90
11573;DHT22;5842;52.426;4.886;2022-09-01T06:40:38;15.00;99.90
11573;DHT22;5842;52.426;4.886;2022-09-01T06:43:07;15.10;99.90
11573;DHT22;5842;52.426;4.886;2022-09-01T06:45:39;15.20;99.90
11573;DHT22;5842;52.426;4.886;2022-09-01T06:48:07;15.20;99.90
11573;DHT22;5842;52.426;4.886;2022-09-01T06:50:34;15.40;99.90
11573;DHT22;5842;52.426;4.886;2022-09-01T06:53:03;15.40;99.90
11573;DHT22;5842;52.426;4.886;2022-09-01T06:55:36;15.50;99.90
11573;DHT22;5842;52.426;4.886;2022-09-01T06:58:04;15.60;99.90
11573;DHT22;5842;52.426;4.886;2022-09-01T07:00:32;15.70;99.90
11573;DHT22;5842;52.426;4.886;2022-09-01T07:03:07;15.80;99.90
11573;DHT22;5842;52.426;4.886;2022-09-01T07:05:37;15.90;99.90
11573;DHT22;5842;52.426;4.886;2022-09-01T07:08:08;16.00;99.90
11573;DHT22;5842;52.426;4.886;2022-09-01T07:10:42;16.00;99.90
11573;DHT22;5842;52.426;4.886;2022-09-01T07:13:11;16.20;99.90
11573;DHT22;5842;52.426;4.886;2022-09-01T07:15:48;16.30;99.90
11573;DHT22;5842;52.426;4.886;2022-09-01T07:18:15;16.50;99.90
11573;DHT22;5842;52.426;4.886;2022-09-01T07:38:38;23.70;99.50
11573;DHT22;5842;52.426;4.886;2022-09-01T07:48:33;30.00;95.20
11573;DHT22;5842;52.426;4.886;2022-09-01T07:51:00;30.40;69.30
11573;DHT22;5842;52.426;4.886;2022-09-01T07:53:29;31.00;68.20
11573;DHT22;5842;52.426;4.886;2022-09-01T07:55:59;31.90;65.30
11573;DHT22;5842;52.426;4.886;2022-09-01T07:58:27;32.60;63.00
11573;DHT22;5842;52.426;4.886;2022-09-01T08:00:54;32.80;61.20
11573;DHT22;5842;52.426;4.886;2022-09-01T08:03:27;33.20;57.20
11573;DHT22;5842;52.426;4.886;2022-09-01T08:05:54;33.60;57.40
11573;DHT22;5842;52.426;4.886;2022-09-01T08:08:25;33.80;55.70
11573;DHT22;5842;52.426;4.886;2022-09-01T08:10:52;33.90;55.70
11573;DHT22;5842;52.426;4.886;2022-09-01T08:13:20;34.20;53.70
11573;DHT22;5842;52.426;4.886;2022-09-01T08:15:48;34.30;53.90
11573;DHT22;5842;52.426;4.886;2022-09-01T08:18:15;34.60;53.60
11573;DHT22;5842;52.426;4.886;2022-09-01T08:20:42;34.00;55.10
11573;DHT22;5842;52.426;4.886;2022-09-01T08:23:11;34.10;54.20
11573;DHT22;5842;52.426;4.886;2022-09-01T08:25:39;34.70;52.10
11573;DHT22;5842;52.426;4.886;2022-09-01T08:28:06;35.00;52.10
11573;DHT22;5842;52.426;4.886;2022-09-01T08:30:36;35.40;51.40
11573;DHT22;5842;52.426;4.886;2022-09-01T08:33:03;35.20;51.40
11573;DHT22;5842;52.426;4.886;2022-09-01T08:35:30;34.90;51.30
11573;DHT22;5842;52.426;4.886;2022-09-01T08:37:57;35.10;51.40
11573;DHT22;5842;52.426;4.886;2022-09-01T08:40:25;35.00;51.30
11573;DHT22;5842;52.426;4.886;2022-09-01T08:42:53;35.00;50.70
11573;DHT22;5842;52.426;4.886;2022-09-01T08:45:22;34.80;50.90
11573;DHT22;5842;52.426;4.886;2022-09-01T08:47:55;35.40;50.20
11573;DHT22;5842;52.426;4.886;2022-09-01T08:50:23;35.30;49.50
11573;DHT22;5842;52.426;4.886;2022-09-01T08:52:50;34.90;50.10
11573;DHT22;5842;52.426;4.886;2022-09-01T08:55:23;34.80;50.70
11573;DHT22;5842;52.426;4.886;2022-09-01T08:57:52;34.50;50.30
11573;DHT22;5842;52.426;4.886;2022-09-01T09:00:23;34.30;51.80
11573;DHT22;5842;52.426;4.886;2022-09-01T09:02:53;34.40;50.40
11573;DHT22;5842;52.426;4.886;2022-09-01T09:05:27;33.70;51.00
11573;DHT22;5842;52.426;4.886;2022-09-01T09:08:09;33.50;51.80
11573;DHT22;5842;52.426;4.886;2022-09-01T09:10:42;32.90;51.90
11573;DHT22;5842;52.426;4.886;2022-09-01T09:13:16;32.80;51.90
11573;DHT22;5842;52.426;4.886;2022-09-01T09:15:49;32.80;52.40
11573;DHT22;5842;52.426;4.886;2022-09-01T09:18:18;32.50;51.60
11573;DHT22;5842;52.426;4.886;2022-09-01T09:20:47;32.20;52.20
11573;DHT22;5842;52.426;4.886;2022-09-01T09:23:17;31.90;53.80
11573;DHT22;5842;52.426;4.886;2022-09-01T09:25:47;32.00;54.10
11573;DHT22;5842;52.426;4.886;2022-09-01T09:28:15;31.70;54.70
11573;DHT22;5842;52.426;4.886;2022-09-01T09:30:42;31.20;54.70
11573;DHT22;5842;52.426;4.886;2022-09-01T09:33:34;30.60;57.30
11573;DHT22;5842;52.426;4.886;2022-09-01T09:35:57;29.90;57.40
11573;DHT22;5842;52.426;4.886;2022-09-01T09:38:43;29.00;59.10
11573;DHT22;5842;52.426;4.886;2022-09-01T09:41:14;27.40;62.40
11573;DHT22;5842;52.426;4.886;2022-09-01T09:43:42;27.20;63.30
11573;DHT22;5842;52.426;4.886;2022-09-01T09:46:20;26.40;66.50
11573;DHT22;5842;52.426;4.886;2022-09-01T09:48:48;25.70;67.90
11573;DHT22;5842;52.426;4.886;2022-09-01T09:53:44;24.80;70.10
11573;DHT22;5842;52.426;4.886;2022-09-01T09:56:17;24.50;75.50
11573;DHT22;5842;52.426;4.886;2022-09-01T09:58:46;24.40;75.30
11573;DHT22;5842;52.426;4.886;2022-09-01T10:01:28;24.40;74.80
11573;DHT22;5842;52.426;4.886;2022-09-01T10:03:57;24.40;75.90
11573;DHT22;5842;52.426;4.886;2022-09-01T10:06:33;24.50;75.90
11573;DHT22;5842;52.426;4.886;2022-09-01T10:09:05;24.50;75.90
11573;DHT22;5842;52.426;4.886;2022-09-01T10:11:36;24.50;76.30
11573;DHT22;5842;52.426;4.886;2022-09-01T10:14:09;24.50;79.70
11573;DHT22;5842;52.426;4.886;2022-09-01T10:16:40;24.60;78.60
11573;DHT22;5842;52.426;4.886;2022-09-01T10:19:12;24.60;76.70
11573;DHT22;5842;52.426;4.886;2022-09-01T10:21:41;24.60;76.70
11573;DHT22;5842;52.426;4.886;2022-09-01T10:24:17;24.60;76.20
11573;DHT22;5842;52.426;4.886;2022-09-01T10:26:48;24.70;79.20
11573;DHT22;5842;52.426;4.886;2022-09-01T10:29:19;24.80;79.40
11573;DHT22;5842;52.426;4.886;2022-09-01T10:31:48;25.00;76.10
11573;DHT22;5842;52.426;4.886;2022-09-01T10:34:20;25.00;75.30
11573;DHT22;5842;52.426;4.886;2022-09-01T10:36:49;25.00;75.60
11573;DHT22;5842;52.426;4.886;2022-09-01T10:39:18;25.00;75.50
11573;DHT22;5842;52.426;4.886;2022-09-01T10:41:52;25.10;72.90
11573;DHT22;5842;52.426;4.886;2022-09-01T10:44:23;25.10;71.30
11573;DHT22;5842;52.426;4.886;2022-09-01T10:46:55;25.20;70.30
11573;DHT22;5842;52.426;4.886;2022-09-01T10:52:52;25.30;72.90
11573;DHT22;5842;52.426;4.886;2022-09-01T10:55:23;25.40;71.80
11573;DHT22;5842;52.426;4.886;2022-09-01T10:57:59;25.60;70.30
11573;DHT22;5842;52.426;4.886;2022-09-01T11:00:51;25.70;71.50
11573;DHT22;5842;52.426;4.886;2022-09-01T11:06:55;25.90;67.30
11573;DHT22;5842;52.426;4.886;2022-09-01T11:09:29;25.90;68.90
11573;DHT22;5842;52.426;4.886;2022-09-01T11:15:00;25.70;69.40
11573;DHT22;5842;52.426;4.886;2022-09-01T11:17:29;25.80;69.40
11573;DHT22;5842;52.426;4.886;2022-09-01T11:20:02;25.90;70.10
11573;DHT22;5842;52.426;4.886;2022-09-01T11:22:36;26.10;68.10
11573;DHT22;5842;52.426;4.886;2022-09-01T11:31:14;26.10;69.10
11573;DHT22;5842;52.426;4.886;2022-09-01T11:33:55;26.30;69.20
11573;DHT22;5842;52.426;4.886;2022-09-01T11:36:30;26.30;66.70
11573;DHT22;5842;52.426;4.886;2022-09-01T11:39:06;26.30;66.90
11573;DHT22;5842;52.426;4.886;2022-09-01T11:41:48;26.30;66.00
11573;DHT22;5842;52.426;4.886;2022-09-01T11:44:22;26.40;64.00
11573;DHT22;5842;52.426;4.886;2022-09-01T11:46:55;26.50;65.70
11573;DHT22;5842;52.426;4.886;2022-09-01T11:49:29;26.50;65.40
11573;DHT22;5842;52.426;4.886;2022-09-01T11:51:57;26.50;62.90
11573;DHT22;5842;52.426;4.886;2022-09-01T11:54:27;26.50;62.30
11573;DHT22;5842;52.426;4.886;2022-09-01T11:56:55;26.50;63.90
11573;DHT22;5842;52.426;4.886;2022-09-01T11:59:34;26.60;64.20
11573;DHT22;5842;52.426;4.886;2022-09-01T12:02:04;26.50;63.20
11573;DHT22;5842;52.426;4.886;2022-09-01T12:04:32;26.60;64.10
11573;DHT22;5842;52.426;4.886;2022-09-01T12:07:03;26.50;63.70
11573;DHT22;5842;52.426;4.886;2022-09-01T12:09:33;26.50;62.70
11573;DHT22;5842;52.426;4.886;2022-09-01T12:12:04;26.40;61.70
11573;DHT22;5842;52.426;4.886;2022-09-01T12:14:32;26.40;65.70
11573;DHT22;5842;52.426;4.886;2022-09-01T12:17:04;26.50;64.60
11573;DHT22;5842;52.426;4.886;2022-09-01T12:19:34;26.50;64.50
11573;DHT22;5842;52.426;4.886;2022-09-01T12:22:06;26.50;64.50
11573;DHT22;5842;52.426;4.886;2022-09-01T12:24:44;26.40;62.40
11573;DHT22;5842;52.426;4.886;2022-09-01T12:27:12;26.40;62.70
11573;DHT22;5842;52.426;4.886;2022-09-01T12:29:40;26.30;65.20
11573;DHT22;5842;52.426;4.886;2022-09-01T12:32:12;26.30;64.60
11573;DHT22;5842;52.426;4.886;2022-09-01T12:34:42;26.30;65.50
11573;DHT22;5842;52.426;4.886;2022-09-01T12:37:18;26.40;63.80
11573;DHT22;5842;52.426;4.886;2022-09-01T12:39:47;26.50;66.10
11573;DHT22;5842;52.426;4.886;2022-09-01T12:42:26;26.50;64.20
11573;DHT22;5842;52.426;4.886;2022-09-01T12:44:56;26.50;64.50
11573;DHT22;5842;52.426;4.886;2022-09-01T12:47:50;26.40;65.20
11573;DHT22;5842;52.426;4.886;2022-09-01T12:50:43;26.40;66.40
11573;DHT22;5842;52.426;4.886;2022-09-01T12:53:18;26.40;65.30
11573;DHT22;5842;52.426;4.886;2022-09-01T12:56:05;26.30;65.30
11573;DHT22;5842;52.426;4.886;2022-09-01T12:58:32;26.20;64.20
11573;DHT22;5842;52.426;4.886;2022-09-01T13:01:02;26.20;64.50
11573;DHT22;5842;52.426;4.886;2022-09-01T13:03:32;26.30;66.30
11573;DHT22;5842;52.426;4.886;2022-09-01T13:06:01;26.20;64.20
11573;DHT22;5842;52.426;4.886;2022-09-01T13:08:29;26.20;63.90
11573;DHT22;5842;52.426;4.886;2022-09-01T13:11:01;26.20;66.10
11573;DHT22;5842;52.426;4.886;2022-09-01T13:13:29;26.30;67.40
11573;DHT22;5842;52.426;4.886;2022-09-01T13:15:58;26.40;66.00
11573;DHT22;5842;52.426;4.886;2022-09-01T13:18:26;26.40;64.40
11573;DHT22;5842;52.426;4.886;2022-09-01T13:20:56;26.20;65.40
11573;DHT22;5842;52.426;4.886;2022-09-01T13:23:24;26.10;64.60
11573;DHT22;5842;52.426;4.886;2022-09-01T13:25:52;26.00;66.30
11573;DHT22;5842;52.426;4.886;2022-09-01T13:28:19;26.00;67.10
11573;DHT22;5842;52.426;4.886;2022-09-01T13:30:53;26.10;65.40
11573;DHT22;5842;52.426;4.886;2022-09-01T13:33:21;26.00;65.60
11573;DHT22;5842;52.426;4.886;2022-09-01T13:35:49;26.00;64.60
11573;DHT22;5842;52.426;4.886;2022-09-01T13:38:19;25.90;66.30
11573;DHT22;5842;52.426;4.886;2022-09-01T13:40:48;26.00;65.40
11573;DHT22;5842;52.426;4.886;2022-09-01T13:43:17;25.90;64.90
11573;DHT22;5842;52.426;4.886;2022-09-01T13:45:46;25.90;66.60
11573;DHT22;5842;52.426;4.886;2022-09-01T13:48:14;25.90;65.90
11573;DHT22;5842;52.426;4.886;2022-09-01T13:50:41;26.00;66.70
11573;DHT22;5842;52.426;4.886;2022-09-01T13:53:09;26.00;66.70
11573;DHT22;5842;52.426;4.886;2022-09-01T13:55:40;26.10;65.70
11573;DHT22;5842;52.426;4.886;2022-09-01T13:58:10;26.10;66.50
11573;DHT22;5842;52.426;4.886;2022-09-01T14:00:41;26.20;65.70
11573;DHT22;5842;52.426;4.886;2022-09-01T14:03:13;26.10;66.50
11573;DHT22;5842;52.426;4.886;2022-09-01T14:05:44;26.10;65.20
11573;DHT22;5842;52.426;4.886;2022-09-01T14:08:12;26.00;64.20
11573;DHT22;5842;52.426;4.886;2022-09-01T14:10:43;26.20;66.80
11573;DHT22;5842;52.426;4.886;2022-09-01T14:13:11;26.20;65.70
11573;DHT22;5842;52.426;4.886;2022-09-01T14:15:38;26.20;64.50
11573;DHT22;5842;52.426;4.886;2022-09-01T14:18:06;26.10;62.80
11573;DHT22;5842;52.426;4.886;2022-09-01T14:20:37;26.10;65.30
11573;DHT22;5842;52.426;4.886;2022-09-01T14:23:07;26.00;64.80
11573;DHT22;5842;52.426;4.886;2022-09-01T14:25:35;26.00;65.60
11573;DHT22;5842;52.426;4.886;2022-09-01T14:28:05;26.00;64.20
11573;DHT22;5842;52.426;4.886;2022-09-01T14:30:32;26.00;64.50
11573;DHT22;5842;52.426;4.886;2022-09-01T14:33:02;26.00;65.20
11573;DHT22;5842;52.426;4.886;2022-09-01T14:35:30;25.90;66.00
11573;DHT22;5842;52.426;4.886;2022-09-01T14:37:58;25.90;66.20
11573;DHT22;5842;52.426;4.886;2022-09-01T14:40:26;25.90;65.80
11573;DHT22;5842;52.426;4.886;2022-09-01T14:42:53;25.90;66.60
11573;DHT22;5842;52.426;4.886;2022-09-01T14:45:24;26.00;64.80
11573;DHT22;5842;52.426;4.886;2022-09-01T14:47:55;25.90;66.10
11573;DHT22;5842;52.426;4.886;2022-09-01T14:50:24;26.00;64.70
11573;DHT22;5842;52.426;4.886;2022-09-01T14:52:53;25.90;64.70
11573;DHT22;5842;52.426;4.886;2022-09-01T14:55:21;25.80;65.40
11573;DHT22;5842;52.426;4.886;2022-09-01T14:57:49;25.80;66.10
11573;DHT22;5842;52.426;4.886;2022-09-01T15:00:16;25.80;63.90
11573;DHT22;5842;52.426;4.886;2022-09-01T15:02:46;25.70;65.40
11573;DHT22;5842;52.426;4.886;2022-09-01T15:05:13;25.70;66.20
11573;DHT22;5842;52.426;4.886;2022-09-01T15:07:41;25.70;67.00
11573;DHT22;5842;52.426;4.886;2022-09-01T15:10:14;25.70;66.80
11573;DHT22;5842;52.426;4.886;2022-09-01T15:12:42;25.60;67.70
11573;DHT22;5842;52.426;4.886;2022-09-01T15:15:10;25.50;68.00
11573;DHT22;5842;52.426;4.886;2022-09-01T15:17:37;25.50;65.90
11573;DHT22;5842;52.426;4.886;2022-09-01T15:20:07;25.40;67.60
11573;DHT22;5842;52.426;4.886;2022-09-01T15:22:52;25.30;69.20
11573;DHT22;5842;52.426;4.886;2022-09-01T15:25:22;25.10;68.10
11573;DHT22;5842;52.426;4.886;2022-09-01T15:27:49;25.00;67.70
11573;DHT22;5842;52.426;4.886;2022-09-01T15:30:16;25.00;70.40
11573;DHT22;5842;52.426;4.886;2022-09-01T15:32:51;24.90;67.80
11573;DHT22;5842;52.426;4.886;2022-09-01T15:35:21;24.90;68.40
11573;DHT22;5842;52.426;4.886;2022-09-01T15:37:50;24.70;69.00
11573;DHT22;5842;52.426;4.886;2022-09-01T15:40:18;24.50;69.60
11573;DHT22;5842;52.426;4.886;2022-09-01T15:42:46;24.50;69.40
11573;DHT22;5842;52.426;4.886;2022-09-01T15:45:15;24.40;70.80
11573;DHT22;5842;52.426;4.886;2022-09-01T15:47:43;24.40;69.80
11573;DHT22;5842;52.426;4.886;2022-09-01T15:50:12;24.30;71.50
11573;DHT22;5842;52.426;4.886;2022-09-01T15:52:49;24.20;71.10
11573;DHT22;5842;52.426;4.886;2022-09-01T15:55:18;24.10;69.90
11573;DHT22;5842;52.426;4.886;2022-09-01T15:57:46;24.00;71.50
11573;DHT22;5842;52.426;4.886;2022-09-01T16:00:14;23.90;70.90
11573;DHT22;5842;52.426;4.886;2022-09-01T16:02:42;23.90;73.40
11573;DHT22;5842;52.426;4.886;2022-09-01T16:05:11;23.80;72.50
11573;DHT22;5842;52.426;4.886;2022-09-01T16:10:08;23.70;71.40
11573;DHT22;5842;52.426;4.886;2022-09-01T16:12:39;23.60;74.20
11573;DHT22;5842;52.426;4.886;2022-09-01T16:15:09;23.50;74.30
11573;DHT22;5842;52.426;4.886;2022-09-01T16:17:51;23.40;74.40
11573;DHT22;5842;52.426;4.886;2022-09-01T16:20:22;23.30;74.40
11573;DHT22;5842;52.426;4.886;2022-09-01T16:22:53;23.30;74.30
11573;DHT22;5842;52.426;4.886;2022-09-01T16:25:27;23.20;75.30
11573;DHT22;5842;52.426;4.886;2022-09-01T16:27:56;23.10;75.00
11573;DHT22;5842;52.426;4.886;2022-09-01T16:30:28;23.10;76.60
11573;DHT22;5842;52.426;4.886;2022-09-01T16:32:57;22.90;77.90
11573;DHT22;5842;52.426;4.886;2022-09-01T16:35:34;22.80;79.20
11573;DHT22;5842;52.426;4.886;2022-09-01T16:38:20;22.70;79.20
11573;DHT22;5842;52.426;4.886;2022-09-01T16:40:57;22.60;78.80
11573;DHT22;5842;52.426;4.886;2022-09-01T16:43:35;22.60;79.20
11573;DHT22;5842;52.426;4.886;2022-09-01T16:46:09;22.50;76.20
11573;DHT22;5842;52.426;4.886;2022-09-01T16:48:44;22.50;78.90
11573;DHT22;5842;52.426;4.886;2022-09-01T16:51:16;22.30;81.20
11573;DHT22;5842;52.426;4.886;2022-09-01T16:53:54;22.20;82.40
11573;DHT22;5842;52.426;4.886;2022-09-01T16:56:31;22.20;81.90
11573;DHT22;5842;52.426;4.886;2022-09-01T16:59:07;22.10;81.50
11573;DHT22;5842;52.426;4.886;2022-09-01T17:04:21;21.90;82.60
11573;DHT22;5842;52.426;4.886;2022-09-01T17:06:56;21.80;82.80